Schedule Details

Flight Number: SQS124A
Departure: Karubaga (WABK) at 09:00
Arrival: Sentani International (WAJJ) at 10:00

$depweather=Schedulesdata::GetWeather($schedule->depicao); $arrweather=Schedulesdata::GetWeather($schedule->arricao); $depsun=" Sunrise: ".date_sunrise(time(),SUNFUNCS_RET_STRING,$schedule->deplat,$schedule->deplng,90,0)." Sunset: ".date_sunset(time(),SUNFUNCS_RET_STRING,$schedule->deplat,$schedule->deplng,90,0)." (UTC)"; $arrsun=" Sunrise: ".date_sunrise(time(),SUNFUNCS_RET_STRING,$schedule->arrlat,$schedule->arrlng,90,0)." Sunset: ".date_sunset(time(),SUNFUNCS_RET_STRING,$schedule->arrlat,$schedule->arrlng,90,0)." (UTC)"; Weather Information
Current METAR information for WABK :
Current METAR information for WAJJ : WAJJ 181030Z 01002KT 9999 SCT012 27/23 Q1009 NOSIG

Schedule Frequency




TAF:

Route Map